Time;durP1;ratioP1;P1;durP2;ratioP2;P2;SDS_P1;SDS_P2;PMS_P1;PMS_P2;Temp;Humidity;BMP_temperature;BMP_pressure;BME280_temperature;BME280_humidity;BME280_pressure;Samples;Min_cycle;Max_cycle;Signal;HPM_P1;HPM_P2
2023/04/06 00:01:36;;;;;;;8.57;7.68;;;2.00;99.90;;;;;;5114105;27;20118;-35
2023/04/06 00:04:02;;;;;;;9.75;7.88;;;2.00;99.90;;;;;;5101591;27;20114;-35
2023/04/06 00:06:28;;;;;;;8.68;7.75;;;1.90;99.90;;;;;;5118196;27;20349;-35
2023/04/06 00:08:54;;;;;;;10.25;8.13;;;1.90;99.90;;;;;;5117847;27;20031;-34
2023/04/06 00:11:20;;;;;;;8.80;7.40;;;1.90;99.90;;;;;;5114306;27;20080;-35
2023/04/06 00:13:45;;;;;;;10.73;7.85;;;1.80;99.90;;;;;;5119347;27;20527;-35
2023/04/06 00:16:11;;;;;;;8.85;7.95;;;1.80;99.90;;;;;;5110626;27;20058;-34
2023/04/06 00:18:37;;;;;;;8.95;7.50;;;1.80;99.90;;;;;;5111768;27;20050;-34
2023/04/06 00:21:03;;;;;;;8.02;7.28;;;1.70;99.90;;;;;;5111461;27;20396;-34
2023/04/06 00:23:29;;;;;;;9.10;6.88;;;1.70;99.90;;;;;;5118302;27;20466;-34
2023/04/06 00:25:55;;;;;;;8.13;7.15;;;1.70;99.90;;;;;;5106092;27;20035;-35
2023/04/06 00:28:25;;;;;;;10.05;8.50;;;1.70;99.90;;;;;;5108730;27;20039;-34
2023/04/06 00:30:52;;;;;;;8.75;6.95;;;1.70;99.90;;;;;;5120118;27;20380;-34
2023/04/06 00:33:19;;;;;;;10.85;8.48;;;1.70;99.90;;;;;;5111387;27;20046;-35
2023/04/06 00:35:45;;;;;;;8.55;7.63;;;1.60;99.90;;;;;;5107738;27;20066;-34
2023/04/06 00:38:11;;;;;;;8.32;7.57;;;1.60;99.90;;;;;;5111698;27;20098;-34
2023/04/06 00:40:39;;;;;;;9.55;8.18;;;1.50;99.90;;;;;;5115522;27;20047;-34
2023/04/06 00:43:05;;;;;;;8.70;7.63;;;1.50;99.90;;;;;;5108202;27;20508;-35
2023/04/06 00:45:32;;;;;;;9.50;8.38;;;1.50;99.90;;;;;;5109683;27;20042;-34
2023/04/06 00:47:58;;;;;;;10.15;7.72;;;1.40;99.90;;;;;;5114789;27;20035;-34
2023/04/06 00:50:23;;;;;;;9.18;7.30;;;1.50;99.90;;;;;;5118696;27;20046;-35
2023/04/06 00:52:49;;;;;;;8.45;7.65;;;1.40;99.90;;;;;;5106071;27;20500;-34
2023/04/06 00:55:15;;;;;;;8.55;7.75;;;1.40;99.90;;;;;;5115416;27;20406;-34
2023/04/06 00:57:40;;;;;;;9.15;7.25;;;1.40;99.90;;;;;;5107376;27;20524;-34
2023/04/06 01:00:07;;;;;;;9.60;7.35;;;1.40;99.90;;;;;;5112529;27;20043;-34
2023/04/06 01:02:32;;;;;;;8.13;7.30;;;1.30;99.90;;;;;;5115651;27;20088;-34
2023/04/06 01:04:58;;;;;;;9.32;7.10;;;1.30;99.90;;;;;;5113284;27;20028;-34
2023/04/06 01:07:24;;;;;;;9.00;7.47;;;1.30;99.90;;;;;;5117966;27;20066;-34
2023/04/06 01:09:52;;;;;;;8.93;7.78;;;1.30;99.90;;;;;;5110552;28;20690;-34
2023/04/06 01:12:18;;;;;;;9.68;8.02;;;1.20;99.90;;;;;;5113436;27;20038;-34
2023/04/06 01:14:43;;;;;;;10.27;7.72;;;1.20;99.90;;;;;;5112464;27;20027;-35
2023/04/06 01:17:09;;;;;;;7.90;7.10;;;1.20;99.90;;;;;;5107427;27;20040;-35
2023/04/06 01:19:36;;;;;;;9.93;8.00;;;1.10;99.90;;;;;;5111697;27;20080;-35
2023/04/06 01:22:01;;;;;;;9.68;7.90;;;1.10;99.90;;;;;;5115963;27;20118;-35
2023/04/06 01:24:27;;;;;;;10.43;7.95;;;1.10;99.90;;;;;;5121793;27;20109;-34
2023/04/06 01:26:53;;;;;;;9.85;8.38;;;1.10;99.90;;;;;;5112953;27;20095;-35
2023/04/06 01:29:19;;;;;;;8.75;7.60;;;1.10;99.90;;;;;;5128014;27;20045;-35
2023/04/06 01:31:45;;;;;;;9.80;8.05;;;1.00;99.90;;;;;;5110575;27;20101;-34
2023/04/06 01:34:10;;;;;;;9.40;7.85;;;1.00;99.90;;;;;;5112950;27;20144;-35
2023/04/06 01:36:36;;;;;;;10.50;7.28;;;1.00;99.90;;;;;;5109223;27;20030;-35
2023/04/06 01:39:02;;;;;;;12.13;8.40;;;1.00;99.90;;;;;;5117417;27;20074;-35
2023/04/06 01:41:27;;;;;;;8.95;8.05;;;1.00;99.90;;;;;;5116267;27;20122;-35
2023/04/06 01:43:54;;;;;;;8.57;7.72;;;1.00;99.90;;;;;;5109793;27;20036;-34
2023/04/06 01:46:20;;;;;;;9.80;7.90;;;0.90;99.90;;;;;;5125651;27;20038;-35
2023/04/06 01:48:46;;;;;;;8.93;7.43;;;0.90;99.90;;;;;;5106114;27;20488;-35
2023/04/06 01:51:11;;;;;;;11.55;8.15;;;0.90;99.90;;;;;;5111604;27;20042;-35
2023/04/06 01:53:37;;;;;;;8.68;7.75;;;0.90;99.90;;;;;;5107047;27;20039;-34
2023/04/06 01:56:03;;;;;;;11.93;8.18;;;0.90;99.90;;;;;;5119082;27;20057;-35
2023/04/06 01:58:29;;;;;;;8.57;7.70;;;0.90;99.90;;;;;;5125038;27;20042;-35
2023/04/06 02:00:55;;;;;;;9.50;7.65;;;0.90;99.90;;;;;;5112772;27;20462;-34
2023/04/06 02:03:21;;;;;;;9.30;8.20;;;0.90;99.90;;;;;;5113145;27;20043;-34
2023/04/06 02:05:46;;;;;;;10.88;8.88;;;0.80;99.90;;;;;;5114991;27;20034;-34
2023/04/06 02:08:12;;;;;;;10.15;7.68;;;0.80;99.90;;;;;;5112637;27;20377;-34
2023/04/06 02:10:37;;;;;;;9.65;7.97;;;0.80;99.90;;;;;;5111463;27;20039;-34
2023/04/06 02:13:03;;;;;;;10.70;8.50;;;0.80;99.90;;;;;;5131903;27;20078;-34
2023/04/06 02:15:29;;;;;;;8.32;7.07;;;0.80;99.90;;;;;;5113261;27;20046;-35
2023/04/06 02:17:54;;;;;;;8.93;8.02;;;0.70;99.90;;;;;;5114288;27;20046;-34
2023/04/06 02:20:20;;;;;;;9.93;7.95;;;0.70;99.90;;;;;;5113520;27;20039;-34
2023/04/06 02:22:46;;;;;;;10.18;7.43;;;0.70;99.90;;;;;;5107004;27;20035;-35
2023/04/06 02:25:12;;;;;;;10.00;7.80;;;0.70;99.90;;;;;;5114364;27;20046;-34
2023/04/06 02:27:37;;;;;;;9.93;8.02;;;0.60;99.90;;;;;;5108698;27;20043;-35
2023/04/06 02:30:04;;;;;;;9.93;8.60;;;0.60;99.90;;;;;;5109088;27;20047;-34
2023/04/06 02:32:30;;;;;;;10.77;7.50;;;0.60;99.90;;;;;;5112417;27;20031;-35
2023/04/06 02:34:56;;;;;;;9.68;7.80;;;0.50;99.90;;;;;;5108501;27;20040;-34
2023/04/06 02:37:23;;;;;;;9.95;8.68;;;0.50;99.90;;;;;;5108886;28;20067;-34
2023/04/06 02:39:48;;;;;;;9.32;8.18;;;0.50;99.90;;;;;;5112008;27;20039;-35
2023/04/06 02:42:15;;;;;;;9.93;8.85;;;0.40;99.90;;;;;;5095891;27;20141;-34
2023/04/06 02:44:42;;;;;;;9.70;8.52;;;0.40;99.90;;;;;;5115211;27;20118;-34
2023/04/06 02:47:07;;;;;;;9.90;8.80;;;0.40;99.90;;;;;;5125824;27;20035;-35
2023/04/06 02:49:33;;;;;;;9.48;8.48;;;0.40;99.90;;;;;;5115432;27;20377;-34
2023/04/06 02:51:59;;;;;;;9.75;8.23;;;0.40;99.90;;;;;;5121989;27;20049;-35
2023/04/06 02:54:25;;;;;;;11.18;8.02;;;0.40;99.90;;;;;;5117016;28;20038;-35
2023/04/06 02:56:50;;;;;;;10.27;8.20;;;0.40;99.90;;;;;;5108436;27;20043;-34
2023/04/06 02:59:16;;;;;;;11.80;9.07;;;0.50;99.90;;;;;;5088753;28;20046;-35
2023/04/06 03:01:42;;;;;;;8.98;8.07;;;0.60;99.90;;;;;;5111366;27;20110;-35
2023/04/06 03:04:07;;;;;;;9.35;7.68;;;0.70;99.90;;;;;;5125492;27;20038;-35
2023/04/06 03:06:33;;;;;;;9.80;8.13;;;0.70;99.90;;;;;;5106990;28;20038;-35
2023/04/06 03:08:59;;;;;;;10.85;9.18;;;0.60;99.90;;;;;;5105375;28;20035;-35
2023/04/06 03:11:26;;;;;;;10.90;8.88;;;0.60;99.90;;;;;;5112955;28;20038;-35
2023/04/06 03:13:52;;;;;;;11.00;8.40;;;0.50;99.90;;;;;;5111834;27;20397;-35
2023/04/06 03:16:17;;;;;;;12.57;8.43;;;0.50;99.90;;;;;;5113609;28;20039;-35
2023/04/06 03:18:44;;;;;;;10.88;8.52;;;0.50;99.90;;;;;;5105150;28;20039;-35
2023/04/06 03:21:10;;;;;;;11.70;8.88;;;0.40;99.90;;;;;;5107580;28;20050;-35
2023/04/06 03:23:36;;;;;;;11.45;8.48;;;0.40;99.90;;;;;;5110501;28;20035;-35
2023/04/06 03:26:02;;;;;;;9.13;8.15;;;0.30;99.90;;;;;;5107452;28;20127;-35
2023/04/06 03:28:28;;;;;;;10.25;8.43;;;0.30;99.90;;;;;;5108899;27;20395;-35
2023/04/06 03:30:54;;;;;;;12.65;8.95;;;0.30;99.90;;;;;;5110082;28;20049;-34
2023/04/06 03:33:20;;;;;;;10.93;8.82;;;0.30;99.90;;;;;;5095609;27;20043;-35
2023/04/06 03:35:45;;;;;;;10.38;8.73;;;0.20;99.90;;;;;;5111007;28;20061;-35
2023/04/06 03:38:11;;;;;;;10.05;8.23;;;0.20;99.90;;;;;;5119133;27;20035;-34
2023/04/06 03:40:37;;;;;;;9.50;8.25;;;0.10;99.90;;;;;;5111568;27;20073;-34
2023/04/06 03:43:03;;;;;;;11.30;8.52;;;0.10;99.90;;;;;;5117834;27;20496;-35
2023/04/06 03:45:29;;;;;;;11.23;8.73;;;0.10;99.90;;;;;;5097295;27;20447;-34
2023/04/06 03:47:55;;;;;;;9.63;8.60;;;0.10;99.90;;;;;;5113543;27;20069;-34
2023/04/06 03:50:20;;;;;;;12.18;9.40;;;0.10;99.90;;;;;;5115893;27;20504;-34
2023/04/06 03:52:46;;;;;;;11.65;9.65;;;0.00;99.90;;;;;;5112284;27;20496;-34
2023/04/06 03:55:12;;;;;;;12.38;9.75;;;0.00;99.90;;;;;;5119185;27;20517;-35
2023/04/06 03:57:37;;;;;;;13.52;8.95;;;0.00;99.90;;;;;;5115815;27;20035;-35
2023/04/06 04:00:04;;;;;;;11.15;8.85;;;0.00;99.90;;;;;;5107561;28;20044;-35
2023/04/06 04:02:30;;;;;;;11.25;9.13;;;0.00;99.90;;;;;;5132626;27;20046;-34
2023/04/06 04:04:55;;;;;;;10.13;8.70;;;0.00;99.90;;;;;;5113121;27;20031;-34
2023/04/06 04:07:21;;;;;;;11.45;9.40;;;0.00;99.90;;;;;;5112509;27;20039;-35
2023/04/06 04:09:47;;;;;;;11.13;9.68;;;0.10;99.90;;;;;;5112023;27;20110;-35
2023/04/06 04:12:14;;;;;;;11.18;9.98;;;0.00;99.90;;;;;;5113795;27;20042;-35
2023/04/06 04:14:40;;;;;;;10.10;8.35;;;0.00;99.90;;;;;;5111004;28;20039;-35
2023/04/06 04:17:05;;;;;;;11.45;9.10;;;0.00;99.90;;;;;;5125100;27;20488;-35
2023/04/06 04:19:31;;;;;;;12.70;9.07;;;0.00;99.90;;;;;;5114954;27;20039;-35
2023/04/06 04:21:57;;;;;;;12.30;9.07;;;0.10;99.90;;;;;;5122771;27;20127;-35
2023/04/06 04:24:22;;;;;;;13.52;9.30;;;0.10;99.90;;;;;;5120144;27;20087;-35
2023/04/06 04:26:48;;;;;;;14.70;9.20;;;0.10;99.90;;;;;;5125642;27;20480;-35
2023/04/06 04:29:14;;;;;;;11.13;9.13;;;0.00;99.90;;;;;;5115938;27;20031;-35
2023/04/06 04:31:39;;;;;;;14.27;10.27;;;0.00;99.90;;;;;;5119673;27;20105;-35
2023/04/06 04:34:06;;;;;;;12.65;9.80;;;0.10;99.90;;;;;;5117303;27;20095;-35
2023/04/06 04:36:32;;;;;;;10.20;8.85;;;0.10;99.90;;;;;;5111475;27;20114;-35
2023/04/06 04:38:58;;;;;;;11.70;9.88;;;0.10;99.90;;;;;;5115743;27;20118;-35
2023/04/06 04:41:24;;;;;;;15.38;9.95;;;0.00;99.90;;;;;;5110573;27;20035;-35
2023/04/06 04:43:49;;;;;;;12.32;9.32;;;0.10;99.90;;;;;;5123378;27;20031;-35
2023/04/06 04:46:15;;;;;;;11.38;10.15;;;0.10;99.90;;;;;;5108813;27;20130;-35
2023/04/06 04:48:41;;;;;;;12.38;9.77;;;0.10;99.90;;;;;;5133267;27;20046;-35
2023/04/06 04:51:06;;;;;;;13.18;9.90;;;0.10;99.90;;;;;;5117485;27;20048;-35
2023/04/06 04:53:32;;;;;;;13.43;9.85;;;0.20;99.90;;;;;;5109436;27;20070;-35
2023/04/06 04:55:58;;;;;;;14.43;9.70;;;0.20;99.90;;;;;;5115566;27;20399;-35
2023/04/06 04:58:23;;;;;;;12.18;9.30;;;0.20;99.90;;;;;;5114926;27;20046;-35
2023/04/06 05:00:49;;;;;;;12.15;9.82;;;0.20;99.90;;;;;;5112869;27;20031;-35
2023/04/06 05:03:23;;;;;;;13.30;10.40;;;0.20;99.90;;;;;;5112954;27;20041;-35
2023/04/06 05:05:49;;;;;;;11.98;10.32;;;0.20;99.90;;;;;;5110522;27;20095;-35
2023/04/06 05:08:15;;;;;;;15.30;10.80;;;0.20;99.90;;;;;;5097784;27;20114;-35
2023/04/06 05:10:41;;;;;;;12.07;10.07;;;0.30;99.90;;;;;;5110797;27;20037;-35
2023/04/06 05:13:07;;;;;;;12.23;9.10;;;0.20;99.90;;;;;;5113803;27;20043;-35
2023/04/06 05:15:37;;;;;;;13.30;10.15;;;0.20;99.90;;;;;;5105252;27;20109;-35
2023/04/06 05:18:04;;;;;;;11.23;9.25;;;0.20;99.90;;;;;;5116959;27;20039;-35
2023/04/06 05:20:30;;;;;;;13.65;11.02;;;0.30;99.90;;;;;;5112981;27;20043;-35
2023/04/06 05:22:56;;;;;;;13.25;10.82;;;0.30;99.90;;;;;;5109618;28;20103;-35
2023/04/06 05:25:22;;;;;;;13.18;11.10;;;0.40;99.90;;;;;;5095322;28;20035;-35
2023/04/06 05:27:48;;;;;;;13.32;10.73;;;0.40;99.90;;;;;;5115778;27;20027;-35
2023/04/06 05:30:14;;;;;;;13.93;10.88;;;0.40;99.90;;;;;;5104660;27;20119;-35
2023/04/06 05:32:42;;;;;;;14.50;11.23;;;0.40;99.90;;;;;;5105027;27;20043;-35
2023/04/06 05:35:08;;;;;;;14.68;10.52;;;0.50;99.90;;;;;;5098771;27;20035;-35
2023/04/06 05:37:34;;;;;;;16.63;11.15;;;0.50;99.90;;;;;;5105055;28;20036;-35
2023/04/06 05:40:00;;;;;;;12.48;10.82;;;0.50;99.90;;;;;;5095222;27;20092;-35
2023/04/06 05:42:26;;;;;;;13.88;10.57;;;0.60;99.90;;;;;;5107897;27;20036;-35
2023/04/06 05:44:52;;;;;;;16.05;10.70;;;0.60;99.90;;;;;;5103170;27;20027;-35
2023/04/06 05:47:18;;;;;;;14.88;10.77;;;0.70;99.90;;;;;;5102057;27;20096;-35
2023/04/06 05:49:44;;;;;;;12.60;10.15;;;0.70;99.90;;;;;;5105837;27;20544;-35
2023/04/06 05:52:10;;;;;;;18.45;11.02;;;0.80;99.90;;;;;;5120656;27;20157;-35
2023/04/06 05:54:36;;;;;;;12.52;10.48;;;0.80;99.90;;;;;;5105646;27;20032;-35
2023/04/06 05:57:03;;;;;;;14.45;10.93;;;0.90;99.90;;;;;;5110854;27;20035;-35
2023/04/06 05:59:32;;;;;;;14.20;10.05;;;1.00;99.90;;;;;;5096619;27;20031;-35
2023/04/06 06:01:57;;;;;;;13.20;10.82;;;1.00;99.90;;;;;;5102319;27;20039;-35
2023/04/06 06:04:23;;;;;;;14.02;11.40;;;1.00;99.90;;;;;;5103000;28;20088;-35
2023/04/06 06:06:49;;;;;;;15.80;11.07;;;1.10;99.90;;;;;;5104395;28;20119;-35
2023/04/06 06:09:15;;;;;;;11.82;10.18;;;1.20;99.90;;;;;;5099828;27;20046;-35
2023/04/06 06:11:41;;;;;;;15.00;11.57;;;1.30;99.90;;;;;;5098662;28;20028;-35
2023/04/06 06:14:07;;;;;;;14.40;12.05;;;1.30;99.90;;;;;;5102407;27;20050;-35
2023/04/06 06:16:33;;;;;;;14.82;11.68;;;1.40;99.90;;;;;;5111108;27;20039;-35
2023/04/06 06:18:59;;;;;;;12.85;10.75;;;1.50;99.90;;;;;;5096062;27;20059;-35
2023/04/06 06:21:25;;;;;;;13.85;11.00;;;1.60;99.90;;;;;;5105346;27;20153;-35
2023/04/06 06:23:51;;;;;;;15.70;11.30;;;1.70;99.90;;;;;;5110026;27;20031;-35
2023/04/06 06:26:17;;;;;;;15.23;10.88;;;1.70;99.90;;;;;;5110945;27;20035;-35
2023/04/06 06:28:42;;;;;;;14.07;10.73;;;1.80;99.90;;;;;;5115686;27;20039;-35
2023/04/06 06:31:08;;;;;;;14.77;10.98;;;1.90;99.90;;;;;;5112286;27;20043;-35
2023/04/06 06:33:34;;;;;;;13.93;10.93;;;1.90;99.90;;;;;;5115259;27;20138;-35
2023/04/06 06:36:00;;;;;;;14.32;11.40;;;2.00;99.90;;;;;;5112722;27;20042;-35
2023/04/06 06:38:25;;;;;;;14.48;10.57;;;2.00;99.90;;;;;;5111673;27;20039;-35
2023/04/06 06:40:52;;;;;;;15.02;12.68;;;2.10;99.90;;;;;;5111001;27;20442;-35
2023/04/06 06:43:17;;;;;;;13.80;11.13;;;2.30;99.90;;;;;;5110249;27;20035;-35
2023/04/06 06:45:44;;;;;;;14.80;11.90;;;2.30;99.90;;;;;;5116546;27;20110;-35
2023/04/06 06:48:09;;;;;;;14.88;11.00;;;2.40;99.90;;;;;;5112859;28;20126;-35
2023/04/06 06:50:35;;;;;;;14.30;11.40;;;2.50;99.90;;;;;;5111886;27;20539;-35
2023/04/06 06:53:01;;;;;;;15.82;12.05;;;2.50;99.90;;;;;;5107352;28;20132;-35
2023/04/06 06:55:27;;;;;;;13.82;11.63;;;2.60;99.90;;;;;;5114933;27;20130;-35
2023/04/06 06:57:53;;;;;;;14.13;11.27;;;2.70;99.90;;;;;;5104549;28;20401;-35
2023/04/06 07:00:20;;;;;;;15.77;12.10;;;2.80;99.90;;;;;;5109847;28;20126;-35
2023/04/06 07:02:47;;;;;;;15.98;11.75;;;2.90;99.90;;;;;;5110762;28;20117;-35
2023/04/06 07:05:13;;;;;;;21.20;12.82;;;2.90;99.90;;;;;;5109972;27;20496;-35
2023/04/06 07:07:39;;;;;;;14.07;11.73;;;3.10;99.90;;;;;;5112683;27;20042;-35
2023/04/06 07:10:05;;;;;;;12.93;11.52;;;3.10;99.90;;;;;;5111672;28;20068;-35
2023/04/06 07:12:31;;;;;;;15.00;11.52;;;3.20;99.90;;;;;;5110334;27;20063;-35
2023/04/06 07:14:56;;;;;;;14.77;12.15;;;3.30;99.90;;;;;;5123860;27;20117;-35
2023/04/06 07:17:22;;;;;;;15.88;12.32;;;3.40;99.90;;;;;;5134316;27;20035;-35
2023/04/06 07:19:48;;;;;;;15.75;12.90;;;3.60;99.90;;;;;;5109952;27;20438;-35
2023/04/06 07:22:14;;;;;;;14.32;12.02;;;3.60;99.90;;;;;;5116071;27;20077;-35
2023/04/06 07:24:40;;;;;;;15.75;11.63;;;3.70;99.90;;;;;;5117366;27;20066;-35
2023/04/06 07:27:05;;;;;;;15.73;11.65;;;3.80;99.90;;;;;;5115551;27;20039;-33
2023/04/06 07:29:31;;;;;;;15.93;13.13;;;4.00;99.90;;;;;;5134478;27;20036;-33
2023/04/06 07:31:57;;;;;;;15.35;12.13;;;4.10;99.90;;;;;;5114884;27;20039;-33
2023/04/06 07:34:22;;;;;;;15.40;12.30;;;4.20;99.90;;;;;;5107296;28;20104;-35
2023/04/06 07:36:48;;;;;;;14.15;12.52;;;4.40;99.90;;;;;;5117368;27;20034;-35
2023/04/06 07:39:14;;;;;;;16.52;12.38;;;4.50;99.90;;;;;;5116730;27;20100;-35
2023/04/06 07:41:40;;;;;;;14.43;12.02;;;4.60;99.90;;;;;;5112987;27;20043;-34
2023/04/06 07:44:06;;;;;;;16.35;12.40;;;4.90;99.90;;;;;;5111322;27;20039;-35
2023/04/06 07:46:32;;;;;;;18.15;13.27;;;5.10;99.90;;;;;;5132314;27;20087;-35
2023/04/06 07:48:59;;;;;;;16.60;13.27;;;5.40;99.90;;;;;;5113724;27;20031;-34
2023/04/06 07:51:26;;;;;;;13.30;11.63;;;5.60;99.90;;;;;;5116158;27;20039;-34
2023/04/06 07:53:51;;;;;;;16.40;12.93;;;5.80;99.90;;;;;;5108657;27;20040;-33
2023/04/06 07:56:17;;;;;;;16.20;13.05;;;6.10;99.90;;;;;;5113284;27;20034;-34
2023/04/06 07:58:43;;;;;;;14.85;12.45;;;6.30;99.90;;;;;;5102777;27;20042;-36
2023/04/06 08:01:09;;;;;;;14.50;12.38;;;6.60;99.90;;;;;;5116568;27;20092;-34
2023/04/06 08:03:35;;;;;;;16.08;13.20;;;6.80;99.90;;;;;;5114489;27;20484;-36
2023/04/06 08:06:02;;;;;;;14.95;12.40;;;7.00;99.90;;;;;;5114556;27;20083;-34
2023/04/06 08:08:28;;;;;;;17.48;12.73;;;7.30;99.90;;;;;;5114837;27;20388;-34
2023/04/06 08:10:54;;;;;;;13.90;12.15;;;7.50;99.90;;;;;;5110574;27;20488;-34
2023/04/06 08:13:20;;;;;;;16.35;12.38;;;7.80;99.90;;;;;;5116888;27;20168;-34
2023/04/06 08:15:46;;;;;;;16.27;12.38;;;8.00;99.90;;;;;;5105566;27;20038;-34
2023/04/06 08:18:11;;;;;;;14.50;13.00;;;8.30;99.90;;;;;;5108263;27;20043;-35
2023/04/06 08:20:37;;;;;;;14.80;12.15;;;8.30;99.90;;;;;;5107640;27;20046;-34
2023/04/06 08:23:03;;;;;;;14.23;12.20;;;8.60;99.90;;;;;;5122590;27;20392;-34
2023/04/06 08:25:29;;;;;;;15.35;13.13;;;8.80;99.90;;;;;;5112640;27;20031;-34
2023/04/06 08:27:55;;;;;;;14.23;12.73;;;9.10;99.90;;;;;;5116419;27;20030;-34
2023/04/06 08:30:21;;;;;;;13.00;11.70;;;9.50;99.90;;;;;;5116871;27;20038;-34
2023/04/06 08:32:47;;;;;;;14.10;12.57;;;9.70;99.90;;;;;;5115932;27;20403;-34
2023/04/06 08:35:13;;;;;;;16.52;13.05;;;10.00;99.90;;;;;;5113520;27;20556;-34
2023/04/06 08:37:39;;;;;;;14.23;12.70;;;10.30;99.90;;;;;;5133559;27;20045;-34
2023/04/06 08:40:05;;;;;;;17.63;12.27;;;10.60;99.90;;;;;;5114405;27;20402;-34
2023/04/06 08:42:40;;;;;;;15.25;12.05;;;10.60;99.90;;;;;;5113763;27;20031;-34
2023/04/06 08:45:08;;;;;;;17.00;13.82;;;11.20;99.90;;;;;;5109253;27;20110;-34
2023/04/06 08:47:35;;;;;;;13.68;12.27;;;11.50;99.90;;;;;;5087677;28;20043;-35
2023/04/06 08:50:04;;;;;;;13.90;12.50;;;11.80;99.90;;;;;;5108686;27;20038;-35
2023/04/06 08:52:32;;;;;;;14.65;12.45;;;12.20;99.90;;;;;;5114304;27;20483;-35
2023/04/06 08:54:57;;;;;;;13.00;11.60;;;12.20;98.80;;;;;;5114342;27;20028;-34
2023/04/06 08:57:24;;;;;;;16.45;13.02;;;12.40;99.90;;;;;;5107307;27;20446;-34
2023/04/06 08:59:51;;;;;;;14.60;12.80;;;12.20;99.20;;;;;;5113496;27;20046;-34
2023/04/06 09:02:18;;;;;;;14.50;11.68;;;12.10;99.60;;;;;;5124122;27;19971;-34
2023/04/06 09:04:53;;;;;;;17.00;12.45;;;12.00;94.00;;;;;;5116381;27;20499;-34
2023/04/06 09:07:19;;;;;;;17.55;13.13;;;12.10;69.90;;;;;;5123464;27;20038;-36
2023/04/06 09:09:48;;;;;;;17.15;13.43;;;12.10;92.80;;;;;;5111805;27;20027;-33
2023/04/06 09:12:23;;;;;;;14.18;12.70;;;12.30;83.70;;;;;;5116173;27;20035;-33
2023/04/06 09:14:49;;;;;;;14.63;12.90;;;12.40;67.70;;;;;;5103897;28;20027;-34
2023/04/06 09:17:27;;;;;;;16.48;12.73;;;12.10;65.70;;;;;;5110219;27;20065;-34
2023/04/06 09:19:53;;;;;;;14.35;12.85;;;12.00;60.60;;;;;;5113241;27;20039;-34
2023/04/06 09:22:19;;;;;;;15.70;13.05;;;11.80;63.40;;;;;;5121937;27;20543;-34
2023/04/06 09:24:46;;;;;;;16.92;13.73;;;11.90;64.30;;;;;;5136693;27;20392;-34
2023/04/06 09:27:12;;;;;;;19.15;14.20;;;12.00;64.40;;;;;;5115503;27;20403;-34
2023/04/06 09:29:38;;;;;;;19.85;14.52;;;12.10;63.10;;;;;;5106751;27;20035;-34
2023/04/06 09:32:10;;;;;;;17.00;14.35;;;12.00;61.80;;;;;;5114963;27;20045;-33
2023/04/06 09:34:38;;;;;;;16.85;13.80;;;12.00;61.30;;;;;;5134029;27;20069;-34
2023/04/06 09:37:16;;;;;;;17.40;14.43;;;11.90;60.60;;;;;;5112908;27;20039;-34
2023/04/06 09:39:42;;;;;;;17.88;14.48;;;12.00;60.50;;;;;;5132978;27;20039;-34
2023/04/06 09:42:08;;;;;;;17.83;15.20;;;12.00;60.70;;;;;;5114074;27;20046;-34
2023/04/06 09:44:37;;;;;;;20.35;14.85;;;11.90;60.00;;;;;;5140708;27;20066;-34
2023/04/06 09:47:07;;;;;;;17.65;15.32;;;12.00;59.20;;;;;;5110826;27;20046;-34
2023/04/06 09:49:34;;;;;;;18.38;14.77;;;11.90;59.10;;;;;;5113895;27;20031;-34
2023/04/06 09:52:02;;;;;;;24.08;15.00;;;11.90;59.60;;;;;;5104434;27;20493;-34
2023/04/06 09:54:29;;;;;;;19.27;15.02;;;12.00;59.70;;;;;;5125802;27;20078;-35
2023/04/06 09:56:55;;;;;;;17.38;14.75;;;12.10;60.50;;;;;;5129484;27;20044;-36
2023/04/06 09:59:31;;;;;;;17.65;14.82;;;12.20;60.30;;;;;;5116905;27;20038;-37
2023/04/06 10:01:59;;;;;;;22.17;15.50;;;12.30;58.90;;;;;;5114358;27;20488;-36
2023/04/06 10:04:30;;;;;;;18.45;15.25;;;12.40;59.30;;;;;;5112458;27;20027;-36
2023/04/06 10:06:58;;;;;;;19.85;16.15;;;12.40;58.30;;;;;;5120620;27;20054;-36
2023/04/06 10:09:29;;;;;;;19.80;15.82;;;12.30;58.80;;;;;;5110157;27;20046;-36
2023/04/06 10:11:55;;;;;;;18.58;14.95;;;12.50;59.30;;;;;;5137084;27;20031;-34
2023/04/06 10:14:22;;;;;;;22.55;16.98;;;12.60;58.00;;;;;;5111173;27;20043;-36
2023/04/06 10:16:50;;;;;;;18.65;15.60;;;12.80;57.80;;;;;;5114231;27;20129;-36
2023/04/06 10:19:22;;;;;;;19.80;16.25;;;13.10;58.00;;;;;;5105284;27;20561;-36
2023/04/06 10:21:53;;;;;;;21.45;16.25;;;13.40;57.30;;;;;;5106171;27;20099;-37
2023/04/06 10:24:19;;;;;;;20.85;17.10;;;13.40;56.60;;;;;;5113663;27;20563;-37
2023/04/06 10:26:57;;;;;;;20.83;16.65;;;13.60;56.80;;;;;;5108912;27;20019;-36
2023/04/06 10:29:24;;;;;;;18.40;15.73;;;13.70;55.50;;;;;;5114530;27;20039;-37
2023/04/06 10:31:49;;;;;;;21.58;16.85;;;13.80;55.70;;;;;;5110967;27;20035;-36
2023/04/06 10:34:15;;;;;;;21.83;16.88;;;13.80;54.90;;;;;;5097243;27;20122;-37
2023/04/06 10:36:41;;;;;;;22.10;16.80;;;14.10;55.80;;;;;;5113101;27;20054;-36
2023/04/06 10:39:07;;;;;;;19.98;16.88;;;14.30;54.40;;;;;;5113372;27;20089;-36
2023/04/06 10:41:36;;;;;;;22.23;17.63;;;14.50;56.00;;;;;;5112060;27;20039;-36
2023/04/06 10:44:02;;;;;;;22.83;18.85;;;14.90;54.00;;;;;;5118873;27;20399;-37
2023/04/06 10:46:30;;;;;;;22.17;18.35;;;15.50;54.70;;;;;;5112727;27;20035;-36
2023/04/06 10:48:57;;;;;;;31.92;19.38;;;15.50;53.00;;;;;;5126697;27;20111;-36
2023/04/06 10:51:27;;;;;;;19.83;17.58;;;15.60;53.00;;;;;;5109174;27;20043;-37
2023/04/06 10:53:54;;;;;;;22.58;18.52;;;15.90;51.30;;;;;;5112902;27;20035;-34
2023/04/06 10:56:23;;;;;;;22.58;18.90;;;15.90;51.30;;;;;;5113117;28;20050;-37
2023/04/06 10:58:55;;;;;;;21.92;18.42;;;15.80;50.70;;;;;;5124454;27;20031;-35
2023/04/06 11:01:24;;;;;;;23.85;20.45;;;15.30;50.10;;;;;;5103441;28;20047;-37
2023/04/06 11:03:52;;;;;;;27.02;21.63;;;15.30;50.80;;;;;;5106339;28;20389;-34
2023/04/06 11:06:23;;;;;;;26.58;20.48;;;15.10;50.80;;;;;;5113359;27;20027;-37
2023/04/06 11:08:50;;;;;;;24.13;20.10;;;15.00;50.20;;;;;;5115804;28;20054;-37
2023/04/06 11:11:18;;;;;;;25.27;20.15;;;14.90;51.00;;;;;;5111429;28;20517;-37
2023/04/06 11:13:55;;;;;;;23.60;20.27;;;15.00;50.80;;;;;;5107537;28;20046;-37
2023/04/06 11:16:22;;;;;;;26.98;20.73;;;15.10;50.20;;;;;;5117587;27;20034;-37
2023/04/06 11:19:15;;;;;;;23.75;21.05;;;15.10;50.20;;;;;;5121236;28;20384;-37
2023/04/06 11:21:49;;;;;;;23.85;20.98;;;15.20;49.40;;;;;;5103358;28;20512;-37
2023/04/06 11:24:19;;;;;;;25.15;20.83;;;14.90;49.20;;;;;;5125872;27;20042;-37
2023/04/06 11:26:50;;;;;;;24.73;20.50;;;14.80;49.30;;;;;;5110329;28;20520;-37
2023/04/06 11:29:18;;;;;;;27.15;20.15;;;14.90;50.30;;;;;;5111317;28;20043;-37
2023/04/06 11:31:53;;;;;;;25.52;22.05;;;14.80;49.60;;;;;;5112391;27;20039;-37
2023/04/06 11:34:21;;;;;;;25.10;20.95;;;14.70;49.00;;;;;;5117845;28;20039;-37
2023/04/06 11:36:48;;;;;;;25.70;19.98;;;14.30;49.80;;;;;;5113751;27;20306;-37
2023/04/06 11:39:20;;;;;;;25.90;21.42;;;14.30;50.10;;;;;;5117183;28;20031;-37
2023/04/06 11:41:49;;;;;;;25.58;20.10;;;14.10;50.50;;;;;;5101299;27;20031;-37
2023/04/06 11:44:15;;;;;;;23.85;20.75;;;14.00;50.90;;;;;;5104870;28;20092;-36
2023/04/06 11:46:50;;;;;;;25.85;20.58;;;14.10;50.50;;;;;;5103974;28;20035;-36
2023/04/06 11:49:19;;;;;;;26.05;21.48;;;14.00;50.00;;;;;;5108365;28;20484;-37
2023/04/06 11:51:46;;;;;;;26.58;20.13;;;14.00;50.20;;;;;;5101717;28;20040;-37
2023/04/06 11:54:12;;;;;;;26.13;21.45;;;13.90;50.30;;;;;;5104339;28;20039;-37
2023/04/06 11:56:38;;;;;;;24.95;19.65;;;13.80;49.90;;;;;;5114975;27;20043;-37
2023/04/06 11:59:04;;;;;;;29.20;21.48;;;14.00;50.10;;;;;;5123322;27;20126;-37
2023/04/06 12:01:30;;;;;;;25.92;20.50;;;13.90;49.70;;;;;;5114548;27;20492;-37
2023/04/06 12:03:56;;;;;;;24.30;20.02;;;14.00;49.50;;;;;;5105099;27;20031;-36
2023/04/06 12:06:22;;;;;;;26.33;20.73;;;13.90;49.60;;;;;;5115776;27;20096;-37
2023/04/06 12:08:48;;;;;;;27.58;20.38;;;13.90;49.40;;;;;;5116986;27;20031;-36
2023/04/06 12:11:14;;;;;;;26.05;21.23;;;14.00;49.30;;;;;;5111526;27;20105;-37
2023/04/06 12:13:39;;;;;;;24.55;20.02;;;14.30;49.40;;;;;;5123461;27;20531;-36
2023/04/06 12:16:05;;;;;;;24.70;19.50;;;14.40;48.90;;;;;;5112130;27;20063;-37
2023/04/06 12:18:31;;;;;;;25.95;21.10;;;14.70;48.60;;;;;;5116409;27;20050;-37
2023/04/06 12:20:57;;;;;;;25.42;19.67;;;15.10;48.20;;;;;;5112856;27;20054;-33
2023/04/06 12:23:22;;;;;;;24.98;20.45;;;15.20;48.00;;;;;;5116697;27;20030;-33
2023/04/06 12:25:48;;;;;;;27.40;20.85;;;15.20;48.00;;;;;;5097166;28;20036;-30
2023/04/06 12:28:14;;;;;;;25.55;20.50;;;15.20;48.00;;;;;;5100821;27;20157;-32
2023/04/06 12:30:41;;;;;;;23.98;19.95;;;15.10;47.90;;;;;;5090455;27;20035;-33
2023/04/06 12:33:06;;;;;;;24.23;19.60;;;15.10;48.20;;;;;;5134169;27;20045;-32
2023/04/06 12:35:36;;;;;;;24.25;19.98;;;15.10;47.90;;;;;;5100593;27;20035;-33
2023/04/06 12:38:02;;;;;;;26.80;20.58;;;15.10;47.80;;;;;;5123690;27;20030;-33